Time;durP1;ratioP1;P1;durP2;ratioP2;P2;SDS_P1;SDS_P2;PMS_P1;PMS_P2;Temp;Humidity;BMP_temperature;BMP_pressure;BME280_temperature;BME280_humidity;BME280_pressure;Samples;Min_cycle;Max_cycle;Signal;HPM_P1;HPM_P2
2021/01/28 00:01:45;;;;;;;27.33;15.32;;;6.90;99.90;;;;;;5094103;28;20217;-73
2021/01/28 00:04:11;;;;;;;28.15;13.88;;;6.90;99.90;;;;;;5100243;28;20717;-73
2021/01/28 00:06:38;;;;;;;23.73;12.02;;;6.90;99.90;;;;;;5110435;28;20207;-73
2021/01/28 00:09:05;;;;;;;23.42;14.80;;;6.90;99.90;;;;;;5111662;28;20197;-73
2021/01/28 00:11:31;;;;;;;29.45;15.77;;;6.90;99.90;;;;;;5098269;28;20589;-73
2021/01/28 00:13:58;;;;;;;22.70;12.05;;;6.90;99.90;;;;;;5110121;28;20200;-73
2021/01/28 00:16:24;;;;;;;27.90;15.05;;;6.90;99.90;;;;;;5111830;28;20204;-73
2021/01/28 00:18:51;;;;;;;22.00;13.65;;;6.90;99.90;;;;;;5099268;28;20205;-73
2021/01/28 00:21:17;;;;;;;24.17;15.07;;;6.90;99.90;;;;;;5110022;28;20189;-73
2021/01/28 00:23:44;;;;;;;30.58;15.43;;;6.90;99.90;;;;;;5107400;28;20269;-73
2021/01/28 00:26:10;;;;;;;21.30;13.38;;;6.90;99.90;;;;;;5110850;28;20245;-75
2021/01/28 00:28:36;;;;;;;25.15;15.13;;;6.90;99.90;;;;;;5107670;28;20193;-72
2021/01/28 00:31:03;;;;;;;26.98;13.90;;;6.90;99.90;;;;;;5092126;28;20198;-71
2021/01/28 00:33:29;;;;;;;30.27;15.27;;;6.90;99.90;;;;;;5102623;28;20216;-71
2021/01/28 00:35:57;;;;;;;29.02;17.98;;;6.90;99.90;;;;;;5110958;28;20195;-70
2021/01/28 00:38:26;;;;;;;27.58;14.65;;;6.90;99.90;;;;;;5104102;28;20204;-71
2021/01/28 00:40:53;;;;;;;33.22;16.40;;;6.90;99.90;;;;;;5099267;28;20592;-71
2021/01/28 00:43:20;;;;;;;30.58;15.50;;;6.90;99.90;;;;;;5101650;28;20215;-71
2021/01/28 00:45:47;;;;;;;23.13;14.80;;;7.00;99.90;;;;;;5093498;28;20782;-71
2021/01/28 00:48:14;;;;;;;29.23;14.98;;;6.90;99.90;;;;;;5106253;28;20204;-71
2021/01/28 00:50:41;;;;;;;35.63;18.30;;;6.90;99.90;;;;;;5112529;28;20219;-71
2021/01/28 00:53:09;;;;;;;31.98;17.27;;;6.90;99.90;;;;;;5097676;28;20190;-71
2021/01/28 00:55:35;;;;;;;30.65;15.25;;;6.90;99.90;;;;;;5092549;28;20537;-71
2021/01/28 00:58:03;;;;;;;31.75;16.15;;;7.00;99.90;;;;;;5091626;28;20212;-71
2021/01/28 01:00:32;;;;;;;37.03;18.02;;;7.00;99.90;;;;;;5091890;28;20212;-71
2021/01/28 01:02:58;;;;;;;26.38;14.50;;;7.00;99.90;;;;;;5091467;28;20193;-71
2021/01/28 01:05:27;;;;;;;29.55;15.80;;;7.00;99.90;;;;;;5106428;28;20189;-71
2021/01/28 01:07:54;;;;;;;33.72;16.05;;;7.00;99.90;;;;;;5103515;28;20220;-71
2021/01/28 01:10:26;;;;;;;32.38;17.73;;;7.00;99.90;;;;;;5093916;28;20193;-71
2021/01/28 01:12:53;;;;;;;27.52;16.23;;;7.00;99.90;;;;;;5100750;28;20189;-71
2021/01/28 01:15:20;;;;;;;34.30;17.65;;;7.00;99.90;;;;;;5099972;28;20531;-71
2021/01/28 01:17:46;;;;;;;31.25;16.60;;;7.00;99.90;;;;;;5111827;28;20224;-71
2021/01/28 01:20:13;;;;;;;31.83;16.17;;;7.10;99.90;;;;;;5093646;28;20633;-72
2021/01/28 01:22:41;;;;;;;30.10;15.25;;;7.00;99.90;;;;;;5109138;28;20189;-72
2021/01/28 01:25:08;;;;;;;32.70;16.60;;;7.00;99.90;;;;;;5097703;28;20193;-71
2021/01/28 01:27:34;;;;;;;32.58;16.48;;;7.00;99.90;;;;;;5110115;28;20192;-71
2021/01/28 01:30:01;;;;;;;27.90;15.52;;;7.10;99.90;;;;;;5111557;28;20200;-71
2021/01/28 01:32:28;;;;;;;27.80;15.02;;;7.10;99.90;;;;;;5111419;28;20220;-71
2021/01/28 01:34:54;;;;;;;28.35;15.35;;;7.00;99.90;;;;;;5095440;28;20945;-70
2021/01/28 01:37:20;;;;;;;34.20;15.75;;;7.00;99.90;;;;;;5093461;28;20185;-71
2021/01/28 01:39:46;;;;;;;29.48;16.30;;;7.00;99.90;;;;;;5105288;28;20200;-70
2021/01/28 01:42:13;;;;;;;31.23;16.98;;;7.10;99.90;;;;;;5091961;28;20194;-71
2021/01/28 01:44:39;;;;;;;29.40;15.80;;;7.00;99.90;;;;;;5091321;28;20270;-71
2021/01/28 01:47:30;;;;;;;32.47;16.40;;;7.00;99.90;;;;;;5092318;28;20231;-71
2021/01/28 01:49:57;;;;;;;33.65;16.15;;;7.00;99.90;;;;;;5091075;28;20205;-71
2021/01/28 01:52:28;;;;;;;32.42;14.70;;;7.10;99.90;;;;;;5091324;28;20192;-71
2021/01/28 01:54:55;;;;;;;36.38;17.75;;;7.00;99.90;;;;;;5091006;28;20577;-71
2021/01/28 01:57:25;;;;;;;29.50;15.23;;;7.00;99.90;;;;;;5094235;28;20207;-71
2021/01/28 01:59:57;;;;;;;27.95;15.57;;;7.10;99.90;;;;;;5106784;28;20200;-71
2021/01/28 02:02:24;;;;;;;27.85;15.38;;;7.10;99.90;;;;;;5106576;28;20201;-71
2021/01/28 02:04:57;;;;;;;31.33;16.23;;;7.10;99.90;;;;;;5111434;28;20217;-71
2021/01/28 02:07:27;;;;;;;30.98;17.10;;;7.10;99.90;;;;;;5097521;28;20212;-71
2021/01/28 02:09:53;;;;;;;28.67;15.85;;;7.10;99.90;;;;;;5107689;28;20204;-71
2021/01/28 02:12:19;;;;;;;29.70;15.10;;;7.10;99.90;;;;;;5107296;28;20213;-71
2021/01/28 02:14:47;;;;;;;34.97;16.77;;;7.10;99.90;;;;;;5108912;28;20185;-71
2021/01/28 02:17:17;;;;;;;29.45;14.82;;;7.10;99.90;;;;;;5102970;28;20197;-71
2021/01/28 02:20:12;;;;;;;33.92;16.45;;;7.10;99.90;;;;;;5099835;28;20229;-71
2021/01/28 02:22:48;;;;;;;24.08;14.23;;;7.10;99.90;;;;;;5099305;28;20189;-71
2021/01/28 02:25:23;;;;;;;28.17;16.25;;;7.10;99.90;;;;;;5091044;28;20254;-71
2021/01/28 02:27:51;;;;;;;28.75;16.00;;;7.10;99.90;;;;;;5090805;28;20201;-71
2021/01/28 02:30:20;;;;;;;30.80;16.55;;;7.10;99.90;;;;;;5099528;28;20207;-71
2021/01/28 02:32:47;;;;;;;30.77;16.92;;;7.10;99.90;;;;;;5110900;28;20204;-72
2021/01/28 02:35:14;;;;;;;31.58;17.77;;;7.10;99.90;;;;;;5109739;28;20189;-72
2021/01/28 02:37:41;;;;;;;29.67;16.70;;;7.10;99.90;;;;;;5108549;28;20202;-72
2021/01/28 02:40:08;;;;;;;32.42;16.75;;;7.10;99.90;;;;;;5109236;28;20203;-72
2021/01/28 02:42:36;;;;;;;30.80;16.85;;;7.20;99.90;;;;;;5102674;28;20193;-72
2021/01/28 02:45:04;;;;;;;27.85;14.60;;;7.20;99.90;;;;;;5095529;28;20645;-71
2021/01/28 02:47:30;;;;;;;30.45;15.93;;;7.10;99.90;;;;;;5095688;28;20250;-72
2021/01/28 02:49:56;;;;;;;28.42;15.48;;;7.20;99.90;;;;;;5109652;28;20620;-71
2021/01/28 02:52:23;;;;;;;32.78;16.23;;;7.20;99.90;;;;;;5096204;28;20200;-71
2021/01/28 02:54:53;;;;;;;35.90;17.55;;;7.20;99.90;;;;;;5114673;28;20188;-71
2021/01/28 02:57:20;;;;;;;29.58;17.08;;;7.20;99.90;;;;;;5111678;28;20193;-71
2021/01/28 02:59:48;;;;;;;28.45;13.77;;;7.20;99.90;;;;;;5113794;28;20197;-71
2021/01/28 03:02:17;;;;;;;25.92;15.90;;;7.20;99.90;;;;;;5101991;28;20617;-71
2021/01/28 03:04:43;;;;;;;30.00;16.70;;;7.20;99.90;;;;;;5114382;28;20216;-71
2021/01/28 03:07:11;;;;;;;27.42;13.57;;;7.20;99.90;;;;;;5108666;28;20224;-72
2021/01/28 03:09:38;;;;;;;29.42;16.92;;;7.20;99.90;;;;;;5094062;28;20209;-71
2021/01/28 03:12:05;;;;;;;28.40;16.77;;;7.20;99.90;;;;;;5095037;28;20212;-71
2021/01/28 03:14:31;;;;;;;28.13;16.63;;;7.20;99.90;;;;;;5109406;28;20215;-71
2021/01/28 03:16:58;;;;;;;30.98;15.52;;;7.20;99.90;;;;;;5099169;28;20663;-71
2021/01/28 03:19:25;;;;;;;34.53;16.70;;;7.20;99.90;;;;;;5102074;28;20193;-71
2021/01/28 03:21:51;;;;;;;26.23;14.48;;;7.20;99.90;;;;;;5099301;28;20901;-71
2021/01/28 03:24:18;;;;;;;35.67;15.65;;;7.20;99.90;;;;;;5093687;28;20213;-71
2021/01/28 03:26:44;;;;;;;31.00;17.60;;;7.20;99.90;;;;;;5110753;28;20241;-71
2021/01/28 03:29:12;;;;;;;29.45;15.13;;;7.20;99.90;;;;;;5095185;28;20201;-71
2021/01/28 03:31:38;;;;;;;26.60;15.60;;;7.20;99.90;;;;;;5106876;28;20193;-71
2021/01/28 03:34:06;;;;;;;26.08;14.70;;;7.20;99.90;;;;;;5113917;28;20181;-71
2021/01/28 03:36:32;;;;;;;25.58;14.98;;;7.20;99.90;;;;;;5114586;28;20207;-71
2021/01/28 03:38:59;;;;;;;25.13;14.25;;;7.20;99.90;;;;;;5111690;28;20201;-71
2021/01/28 03:41:25;;;;;;;27.33;14.20;;;7.20;99.90;;;;;;5097899;28;20614;-71
2021/01/28 03:43:51;;;;;;;29.33;15.90;;;7.20;99.90;;;;;;5093156;28;20275;-70
2021/01/28 03:46:17;;;;;;;26.17;13.52;;;7.20;99.90;;;;;;5111069;28;20345;-70
2021/01/28 03:48:44;;;;;;;25.17;13.65;;;7.20;99.90;;;;;;5098755;28;20198;-70
2021/01/28 03:51:11;;;;;;;26.83;14.77;;;7.20;99.90;;;;;;5094648;28;20205;-71
2021/01/28 03:53:37;;;;;;;26.83;14.55;;;7.20;99.90;;;;;;5113360;28;20257;-71
2021/01/28 03:56:04;;;;;;;33.15;15.10;;;7.30;99.90;;;;;;5100753;28;20202;-70
2021/01/28 03:58:30;;;;;;;26.95;13.70;;;7.30;99.90;;;;;;5096706;28;20218;-71
2021/01/28 04:00:56;;;;;;;29.58;15.63;;;7.20;99.90;;;;;;5111116;28;20192;-71
2021/01/28 04:03:22;;;;;;;26.45;14.13;;;7.30;99.90;;;;;;5112780;28;20227;-71
2021/01/28 04:05:49;;;;;;;25.38;13.27;;;7.20;99.90;;;;;;5111390;28;20181;-71
2021/01/28 04:08:16;;;;;;;35.70;15.50;;;7.30;99.90;;;;;;5111753;28;20193;-71
2021/01/28 04:10:42;;;;;;;25.98;15.60;;;7.20;99.90;;;;;;5103827;28;20201;-71
2021/01/28 04:13:09;;;;;;;26.25;14.40;;;7.20;99.90;;;;;;5093665;28;20210;-71
2021/01/28 04:15:35;;;;;;;26.92;14.10;;;7.30;99.90;;;;;;5093108;28;20538;-71
2021/01/28 04:18:02;;;;;;;31.98;14.65;;;7.20;99.90;;;;;;5092845;28;20241;-71
2021/01/28 04:20:31;;;;;;;24.42;14.45;;;7.30;99.90;;;;;;5111751;28;20193;-71
2021/01/28 04:22:58;;;;;;;20.02;12.23;;;7.30;99.90;;;;;;5100580;28;20556;-71
2021/01/28 04:25:26;;;;;;;26.40;15.00;;;7.30;99.90;;;;;;5105954;28;20670;-71
2021/01/28 04:27:53;;;;;;;22.70;12.57;;;7.20;99.90;;;;;;5092524;28;20201;-71
2021/01/28 04:30:23;;;;;;;21.00;12.65;;;7.30;99.90;;;;;;5101465;28;20671;-72
2021/01/28 04:32:50;;;;;;;28.25;14.40;;;7.30;99.90;;;;;;5112119;28;20185;-72
2021/01/28 04:35:17;;;;;;;30.58;14.82;;;7.20;99.90;;;;;;5101467;28;20197;-71
2021/01/28 04:37:44;;;;;;;26.90;13.93;;;7.30;99.90;;;;;;5096384;28;20196;-72
2021/01/28 04:40:18;;;;;;;24.88;14.85;;;7.30;99.90;;;;;;5112044;28;20222;-72
2021/01/28 04:42:47;;;;;;;27.88;15.35;;;7.20;99.90;;;;;;5112250;28;20183;-72
2021/01/28 04:45:18;;;;;;;26.50;13.98;;;7.30;99.90;;;;;;5096523;28;20217;-71
2021/01/28 04:47:49;;;;;;;27.08;14.18;;;7.30;99.90;;;;;;5092314;28;20193;-71
2021/01/28 04:50:23;;;;;;;19.98;11.65;;;7.30;99.90;;;;;;5093494;28;20246;-70
2021/01/28 04:52:52;;;;;;;26.20;13.52;;;7.30;99.90;;;;;;5107878;28;20181;-70
2021/01/28 04:55:23;;;;;;;22.70;11.13;;;7.30;99.90;;;;;;5101458;28;20721;-71
2021/01/28 04:57:50;;;;;;;20.92;12.52;;;7.30;99.90;;;;;;5097590;28;20262;-71
2021/01/28 05:00:17;;;;;;;22.95;14.05;;;7.30;99.90;;;;;;5091666;28;20194;-71
2021/01/28 05:02:44;;;;;;;19.02;12.63;;;7.30;99.90;;;;;;5092122;28;20370;-71
2021/01/28 05:05:12;;;;;;;20.73;12.45;;;7.30;99.90;;;;;;5110703;28;20696;-70
2021/01/28 05:07:40;;;;;;;20.83;12.65;;;7.30;99.90;;;;;;5102066;28;20197;-70
2021/01/28 05:10:13;;;;;;;20.70;12.95;;;7.30;99.90;;;;;;5104506;28;20215;-71
2021/01/28 05:12:40;;;;;;;28.42;12.88;;;7.30;99.90;;;;;;5091740;28;20197;-71
2021/01/28 05:15:15;;;;;;;19.88;12.30;;;7.30;99.90;;;;;;5091735;28;20201;-70
2021/01/28 05:17:42;;;;;;;23.60;12.77;;;7.30;99.90;;;;;;5091475;28;20250;-70
2021/01/28 05:20:18;;;;;;;22.42;12.73;;;7.30;99.90;;;;;;5092694;28;20228;-70
2021/01/28 05:22:55;;;;;;;27.13;12.93;;;7.30;99.90;;;;;;5095365;28;20648;-70
2021/01/28 05:25:34;;;;;;;16.38;11.57;;;7.40;99.90;;;;;;5097655;28;20217;-71
2021/01/28 05:28:17;;;;;;;22.02;13.10;;;7.30;99.90;;;;;;5091741;28;20186;-72
2021/01/28 05:30:45;;;;;;;21.52;12.20;;;7.30;99.90;;;;;;5109194;28;20192;-71
2021/01/28 05:33:28;;;;;;;24.83;11.63;;;7.30;99.90;;;;;;5111461;28;20196;-71
2021/01/28 05:36:06;;;;;;;21.00;10.60;;;7.30;99.90;;;;;;5108405;28;20662;-71
2021/01/28 05:38:36;;;;;;;20.25;11.02;;;7.30;99.90;;;;;;5104371;28;20196;-71
2021/01/28 05:41:04;;;;;;;17.95;11.77;;;7.30;99.90;;;;;;5111128;28;20197;-71
2021/01/28 05:43:34;;;;;;;19.42;12.07;;;7.40;99.90;;;;;;5091937;28;20217;-71
2021/01/28 05:46:18;;;;;;;22.75;11.85;;;7.40;99.90;;;;;;5091706;28;20244;-71
2021/01/28 05:48:45;;;;;;;20.20;11.35;;;7.30;99.90;;;;;;5091124;28;20310;-71
2021/01/28 05:51:15;;;;;;;15.73;11.48;;;7.30;99.90;;;;;;5096748;28;20943;-71
2021/01/28 05:53:57;;;;;;;19.70;12.68;;;7.40;99.90;;;;;;5098239;28;20673;-71
2021/01/28 05:56:23;;;;;;;18.45;10.32;;;7.30;99.90;;;;;;5108504;28;20188;-72
2021/01/28 05:58:56;;;;;;;13.80;10.35;;;7.40;99.90;;;;;;5104768;28;20245;-71
2021/01/28 06:01:35;;;;;;;16.73;10.25;;;7.40;99.90;;;;;;5105653;28;20242;-71
2021/01/28 06:04:20;;;;;;;19.58;11.57;;;7.30;99.90;;;;;;5090985;28;20220;-71
2021/01/28 06:07:32;;;;;;;22.38;11.80;;;7.30;99.90;;;;;;5096678;28;20197;-70
2021/01/28 06:10:27;;;;;;;18.98;10.52;;;7.30;99.90;;;;;;5099863;28;20200;-70
2021/01/28 06:13:24;;;;;;;20.60;11.27;;;7.30;99.90;;;;;;5098772;28;20204;-70
2021/01/28 06:15:59;;;;;;;16.55;9.80;;;7.40;99.90;;;;;;5110848;28;20238;-70
2021/01/28 06:18:49;;;;;;;18.42;10.25;;;7.40;99.90;;;;;;5097362;28;20231;-70
2021/01/28 06:21:37;;;;;;;13.50;8.70;;;7.40;99.90;;;;;;5090684;28;20190;-70
2021/01/28 06:24:28;;;;;;;18.17;11.23;;;7.40;99.90;;;;;;5090314;28;20213;-70
2021/01/28 06:27:09;;;;;;;20.98;11.00;;;7.30;99.90;;;;;;5111634;28;20475;-70
2021/01/28 06:30:01;;;;;;;16.83;10.80;;;7.30;99.90;;;;;;5104252;28;20769;-71
2021/01/28 06:33:19;;;;;;;19.65;11.25;;;7.40;99.90;;;;;;5113441;28;20196;-70
2021/01/28 06:36:00;;;;;;;19.88;11.30;;;7.40;99.90;;;;;;5109913;28;20674;-70
2021/01/28 06:38:48;;;;;;;22.58;12.60;;;7.40;99.90;;;;;;5114768;28;20208;-70
2021/01/28 06:41:18;;;;;;;15.77;10.70;;;7.40;99.90;;;;;;5098937;28;20193;-71
2021/01/28 06:43:53;;;;;;;18.48;10.15;;;7.40;99.90;;;;;;5095060;28;20201;-71
2021/01/28 06:46:30;;;;;;;16.05;10.27;;;7.40;99.90;;;;;;5107007;28;20236;-71
2021/01/28 06:49:07;;;;;;;20.20;10.45;;;7.40;99.90;;;;;;5109543;28;20652;-71
2021/01/28 06:51:46;;;;;;;20.13;10.02;;;7.40;99.90;;;;;;5095408;28;20189;-71
2021/01/28 06:54:16;;;;;;;14.10;9.98;;;7.40;99.90;;;;;;5095958;28;20197;-72
2021/01/28 06:56:48;;;;;;;15.10;9.70;;;7.40;99.90;;;;;;5094179;28;20198;-71
2021/01/28 06:59:21;;;;;;;14.77;9.00;;;7.40;99.90;;;;;;5094384;28;20189;-72
2021/01/28 07:01:56;;;;;;;17.40;10.10;;;7.40;99.90;;;;;;5094324;28;20222;-72
2021/01/28 07:04:30;;;;;;;15.40;9.55;;;7.40;99.90;;;;;;5106195;28;20243;-72
2021/01/28 07:07:06;;;;;;;17.55;9.20;;;7.40;99.90;;;;;;5111762;28;20201;-72
2021/01/28 07:09:41;;;;;;;11.68;9.15;;;7.40;99.90;;;;;;5094433;28;20177;-71
2021/01/28 07:12:10;;;;;;;12.68;8.65;;;7.40;99.90;;;;;;5095774;28;20615;-72
2021/01/28 07:14:38;;;;;;;16.27;10.00;;;7.40;99.90;;;;;;5102717;28;20208;-72
2021/01/28 07:17:12;;;;;;;12.88;8.85;;;7.40;99.90;;;;;;5110966;28;20205;-71
2021/01/28 07:19:41;;;;;;;16.55;10.50;;;7.40;99.90;;;;;;5093717;28;20189;-72
2021/01/28 07:22:26;;;;;;;14.70;9.95;;;7.40;99.90;;;;;;5111473;28;20203;-72
2021/01/28 07:24:52;;;;;;;13.00;8.35;;;7.40;99.90;;;;;;5093660;28;20217;-72
2021/01/28 07:27:21;;;;;;;17.48;8.50;;;7.40;99.90;;;;;;5095453;28;20204;-72
2021/01/28 07:29:56;;;;;;;13.30;7.80;;;7.40;99.90;;;;;;5093753;28;20254;-72
2021/01/28 07:32:51;;;;;;;13.38;8.27;;;7.40;99.90;;;;;;5094831;28;20189;-71
2021/01/28 07:35:45;;;;;;;13.70;8.32;;;7.40;99.90;;;;;;5093331;28;20648;-72
2021/01/28 07:38:50;;;;;;;18.33;10.00;;;7.30;99.90;;;;;;5100321;28;20204;-72
2021/01/28 07:41:31;;;;;;;14.73;7.85;;;7.40;99.90;;;;;;5100925;28;20232;-72
2021/01/28 07:44:32;;;;;;;17.38;8.57;;;7.40;99.90;;;;;;5094690;28;20206;-72
2021/01/28 07:46:59;;;;;;;13.45;8.80;;;7.40;99.90;;;;;;5087759;28;20220;-72
2021/01/28 07:49:27;;;;;;;15.07;8.27;;;7.40;99.90;;;;;;5107930;28;20197;-72
2021/01/28 07:52:30;;;;;;;12.63;8.45;;;7.40;99.90;;;;;;5112815;28;20203;-72
2021/01/28 07:54:58;;;;;;;13.82;8.40;;;7.40;99.90;;;;;;5111483;28;20204;-72
2021/01/28 07:57:43;;;;;;;13.88;9.65;;;7.40;99.90;;;;;;5107728;28;20203;-71
2021/01/28 08:00:14;;;;;;;15.98;8.73;;;7.40;99.90;;;;;;5102477;28;20193;-71
2021/01/28 08:02:40;;;;;;;14.18;8.55;;;7.50;99.90;;;;;;5093376;28;20189;-72
2021/01/28 08:05:11;;;;;;;11.93;8.35;;;7.50;99.90;;;;;;5108159;28;20229;-72
2021/01/28 08:07:39;;;;;;;13.57;8.25;;;7.40;99.90;;;;;;5098625;28;20188;-72
2021/01/28 08:10:25;;;;;;;13.27;9.02;;;7.40;99.90;;;;;;5111227;28;20201;-71
2021/01/28 08:12:54;;;;;;;12.45;8.60;;;7.40;99.90;;;;;;5105372;28;20192;-72
2021/01/28 08:15:25;;;;;;;12.45;8.52;;;7.40;99.90;;;;;;5093419;28;20194;-72
2021/01/28 08:18:00;;;;;;;12.38;9.30;;;7.40;99.90;;;;;;5093503;28;20682;-71
2021/01/28 08:20:30;;;;;;;17.77;9.50;;;7.40;99.90;;;;;;5093942;28;20193;-72
2021/01/28 08:23:04;;;;;;;15.70;9.57;;;7.40;99.90;;;;;;5095150;28;20190;-72
2021/01/28 08:25:34;;;;;;;13.13;8.13;;;7.40;99.90;;;;;;5098412;28;20224;-72
2021/01/28 08:28:12;;;;;;;14.25;8.93;;;7.40;99.90;;;;;;5106653;28;20522;-72
2021/01/28 08:30:39;;;;;;;13.23;8.10;;;7.40;99.90;;;;;;5103451;28;20200;-72
2021/01/28 08:33:06;;;;;;;14.82;8.45;;;7.40;99.90;;;;;;5102102;28;20193;-72
2021/01/28 08:35:38;;;;;;;11.57;7.47;;;7.40;99.90;;;;;;5100827;28;20205;-72
2021/01/28 08:38:06;;;;;;;9.90;8.02;;;7.40;99.90;;;;;;5113331;28;20203;-72
2021/01/28 08:40:35;;;;;;;16.40;9.32;;;7.40;99.90;;;;;;5103007;28;20556;-72
2021/01/28 08:43:12;;;;;;;11.55;8.00;;;7.40;99.90;;;;;;5093303;28;20688;-72
2021/01/28 08:45:40;;;;;;;14.48;8.60;;;7.40;99.90;;;;;;5108268;28;20293;-72
2021/01/28 08:48:10;;;;;;;15.63;9.10;;;7.40;99.90;;;;;;5109689;28;20215;-72
2021/01/28 08:50:38;;;;;;;14.57;8.93;;;7.40;99.90;;;;;;5112274;28;20197;-72
2021/01/28 08:53:23;;;;;;;12.68;9.10;;;7.40;99.90;;;;;;5156969;27;20508;-72
2021/01/28 08:55:50;;;;;;;10.35;6.55;;;7.30;99.90;;;;;;5150664;27;20286;-72
2021/01/28 08:58:20;;;;;;;10.40;7.35;;;7.40;99.90;;;;;;5159821;27;20291;-71
2021/01/28 09:00:50;;;;;;;15.65;9.20;;;7.40;99.90;;;;;;5166179;27;20199;-71
2021/01/28 09:03:23;;;;;;;11.95;8.35;;;7.40;99.90;;;;;;5163303;27;20199;-71
2021/01/28 09:05:51;;;;;;;12.27;8.30;;;7.40;99.90;;;;;;5163597;27;20708;-71
2021/01/28 09:08:31;;;;;;;13.18;8.40;;;7.40;99.90;;;;;;5161445;27;20206;-72
2021/01/28 09:11:07;;;;;;;10.38;7.05;;;7.40;99.90;;;;;;5150187;27;20213;-72
2021/01/28 09:13:34;;;;;;;12.35;8.60;;;7.40;99.90;;;;;;5163463;27;20563;-72
2021/01/28 09:16:11;;;;;;;9.95;7.07;;;7.40;99.90;;;;;;5158067;27;20638;-72
2021/01/28 09:18:40;;;;;;;10.10;7.00;;;7.40;99.90;;;;;;5158070;27;20643;-72
2021/01/28 09:21:11;;;;;;;12.50;8.30;;;7.40;99.90;;;;;;5170261;27;20193;-72
2021/01/28 09:23:52;;;;;;;12.20;7.88;;;7.40;99.90;;;;;;5168362;27;20187;-72
2021/01/28 09:26:22;;;;;;;8.20;6.43;;;7.40;99.90;;;;;;5171083;27;20247;-72
2021/01/28 09:28:49;;;;;;;11.00;7.25;;;7.40;99.90;;;;;;5169606;27;20191;-75
2021/01/28 09:31:23;;;;;;;11.48;8.32;;;7.40;99.90;;;;;;5159780;27;20236;-72
2021/01/28 09:33:49;;;;;;;11.65;7.50;;;7.40;99.90;;;;;;5149941;27;20218;-72
2021/01/28 09:36:18;;;;;;;11.25;7.50;;;7.30;99.90;;;;;;5161186;27;20198;-72
2021/01/28 09:39:00;;;;;;;9.13;6.60;;;7.30;99.90;;;;;;5170383;27;20538;-70
2021/01/28 09:41:30;;;;;;;7.85;6.40;;;7.30;99.90;;;;;;5167856;27;20209;-72
2021/01/28 09:43:57;;;;;;;8.25;6.25;;;7.40;99.90;;;;;;5152018;27;20188;-72
2021/01/28 09:46:28;;;;;;;9.60;6.43;;;7.40;99.90;;;;;;5149421;27;20207;-72
2021/01/28 09:48:59;;;;;;;10.35;7.07;;;7.40;99.90;;;;;;5163699;27;20183;-73
2021/01/28 09:51:29;;;;;;;11.00;7.72;;;7.40;99.90;;;;;;5163391;27;20854;-72
2021/01/28 09:54:21;;;;;;;7.95;5.22;;;7.40;99.90;;;;;;5160550;27;20196;-72
2021/01/28 09:56:47;;;;;;;7.22;5.20;;;7.40;99.90;;;;;;5155130;27;20580;-72
2021/01/28 09:59:15;;;;;;;9.90;6.15;;;7.40;99.90;;;;;;5168644;27;20202;-70
2021/01/28 10:01:41;;;;;;;8.68;6.25;;;7.50;99.90;;;;;;5163524;27;20223;-72
2021/01/28 10:04:08;;;;;;;6.90;5.10;;;7.40;99.90;;;;;;5158715;27;20244;-72
2021/01/28 10:06:34;;;;;;;7.55;5.97;;;7.40;99.90;;;;;;5146012;27;20200;-72
2021/01/28 10:09:01;;;;;;;7.45;5.55;;;7.40;99.90;;;;;;5154938;27;20195;-73
2021/01/28 10:11:28;;;;;;;7.40;4.90;;;7.50;99.90;;;;;;5145482;27;20659;-71
2021/01/28 10:13:55;;;;;;;6.65;4.50;;;7.40;99.90;;;;;;5151014;27;20200;-72
2021/01/28 10:16:21;;;;;;;7.40;4.63;;;7.40;99.90;;;;;;5154189;27;20214;-73
2021/01/28 10:18:47;;;;;;;6.75;5.78;;;7.40;99.90;;;;;;5153479;27;20210;-73
2021/01/28 10:21:13;;;;;;;8.77;5.97;;;7.40;99.90;;;;;;5149289;27;20620;-73
2021/01/28 10:23:40;;;;;;;7.30;5.80;;;7.40;99.90;;;;;;5150103;27;20647;-72
2021/01/28 10:26:06;;;;;;;7.82;5.60;;;7.40;99.90;;;;;;5154513;27;20183;-73
2021/01/28 10:28:33;;;;;;;7.32;6.00;;;7.40;99.90;;;;;;5154922;27;20207;-73
2021/01/28 10:31:01;;;;;;;5.60;4.80;;;7.40;99.90;;;;;;5141265;27;20187;-73
2021/01/28 10:33:30;;;;;;;6.90;4.90;;;7.40;99.90;;;;;;5154722;27;20199;-71
2021/01/28 10:35:57;;;;;;;7.68;4.95;;;7.40;99.90;;;;;;5154310;27;20192;-71
2021/01/28 10:38:23;;;;;;;5.38;4.18;;;7.40;99.90;;;;;;5152648;27;20192;-72
2021/01/28 10:40:51;;;;;;;5.40;4.75;;;7.40;99.90;;;;;;5154458;27;20207;-72
2021/01/28 10:43:18;;;;;;;7.60;5.40;;;7.40;99.90;;;;;;5153604;27;20184;-71
2021/01/28 10:45:45;;;;;;;6.93;5.18;;;7.30;99.90;;;;;;5150533;27;20200;-71
2021/01/28 10:48:11;;;;;;;6.72;4.32;;;7.40;99.90;;;;;;5133592;27;20294;-72
2021/01/28 10:50:38;;;;;;;7.35;6.20;;;7.40;99.90;;;;;;5154363;27;20195;-72
2021/01/28 10:53:07;;;;;;;6.95;4.80;;;7.40;99.90;;;;;;5152188;27;20701;-70
2021/01/28 10:55:34;;;;;;;6.18;4.45;;;7.40;99.90;;;;;;5154369;27;20188;-72
2021/01/28 10:58:01;;;;;;;5.25;4.75;;;7.50;99.90;;;;;;5154484;27;20226;-71
2021/01/28 11:00:29;;;;;;;5.93;5.30;;;7.50;99.90;;;;;;5144144;27;20646;-71
2021/01/28 11:02:56;;;;;;;6.40;4.00;;;7.50;99.90;;;;;;5147050;27;20191;-71
2021/01/28 11:05:25;;;;;;;9.18;5.25;;;7.50;99.90;;;;;;5154058;27;20263;-71
2021/01/28 11:07:52;;;;;;;5.53;4.93;;;7.50;99.90;;;;;;5153793;27;20191;-71
2021/01/28 11:10:19;;;;;;;5.55;4.80;;;7.50;99.90;;;;;;5151462;27;20600;-71
2021/01/28 11:12:46;;;;;;;5.22;4.53;;;7.40;99.90;;;;;;5153872;27;20215;-71
2021/01/28 11:15:14;;;;;;;5.13;4.63;;;7.40;99.90;;;;;;5136949;27;20700;-71
2021/01/28 11:17:40;;;;;;;5.05;3.33;;;7.40;99.90;;;;;;5144431;27;20199;-71
2021/01/28 11:20:10;;;;;;;5.80;5.20;;;7.40;99.90;;;;;;5144653;27;20279;-71
2021/01/28 11:22:37;;;;;;;6.97;5.00;;;7.40;99.90;;;;;;5135774;27;20283;-72
2021/01/28 11:25:04;;;;;;;6.30;5.50;;;7.50;99.90;;;;;;5137269;27;20188;-71
2021/01/28 11:27:30;;;;;;;5.85;4.47;;;7.50;99.90;;;;;;5137259;27;20242;-71
2021/01/28 11:29:58;;;;;;;5.63;3.92;;;7.50;99.90;;;;;;5145943;27;20687;-71
2021/01/28 11:32:24;;;;;;;12.48;5.60;;;7.40;99.90;;;;;;5145812;27;20554;-70
2021/01/28 11:34:51;;;;;;;4.40;3.97;;;7.40;99.90;;;;;;5152842;27;20187;-71
2021/01/28 11:37:18;;;;;;;5.30;4.38;;;7.40;99.90;;;;;;5153000;27;20199;-70
2021/01/28 11:39:44;;;;;;;4.50;4.10;;;7.40;99.90;;;;;;5135739;27;20193;-71
2021/01/28 11:42:11;;;;;;;5.05;4.50;;;7.50;99.90;;;;;;5132218;27;20202;-71
2021/01/28 11:44:37;;;;;;;4.45;4.00;;;7.40;99.90;;;;;;5132637;27;20199;-70
2021/01/28 11:47:03;;;;;;;6.05;4.57;;;7.30;99.90;;;;;;5151676;27;20225;-70
2021/01/28 11:49:30;;;;;;;5.25;4.75;;;7.40;99.90;;;;;;5144360;27;20195;-71
2021/01/28 11:51:56;;;;;;;7.03;5.13;;;7.40;99.90;;;;;;5139375;27;20219;-70
2021/01/28 11:54:23;;;;;;;7.60;6.43;;;7.40;99.90;;;;;;5152537;27;20195;-70
2021/01/28 11:56:49;;;;;;;8.07;5.07;;;7.40;99.90;;;;;;5139567;27;20196;-71
2021/01/28 11:59:15;;;;;;;5.15;4.38;;;7.50;99.90;;;;;;5140618;27;20493;-70
2021/01/28 12:01:42;;;;;;;6.93;4.75;;;7.50;99.90;;;;;;5132620;27;20188;-71
2021/01/28 12:04:08;;;;;;;6.68;5.03;;;7.50;99.90;;;;;;5132423;27;20214;-71
2021/01/28 12:06:34;;;;;;;7.90;5.22;;;7.40;99.90;;;;;;5132771;27;20196;-71
2021/01/28 12:09:02;;;;;;;5.07;4.40;;;7.50;99.90;;;;;;5132843;27;20283;-70
2021/01/28 12:11:29;;;;;;;5.82;4.70;;;7.40;99.90;;;;;;5132869;27;20236;-70
2021/01/28 12:13:55;;;;;;;4.75;4.20;;;7.50;99.90;;;;;;5133055;27;20202;-70
2021/01/28 12:16:22;;;;;;;6.28;4.45;;;7.50;99.90;;;;;;5132617;27;20202;-70
2021/01/28 12:18:48;;;;;;;7.63;6.20;;;7.40;99.90;;;;;;5132603;27;20248;-70
2021/01/28 12:21:14;;;;;;;7.18;5.57;;;7.40;99.90;;;;;;5132991;27;20207;-70
2021/01/28 12:23:40;;;;;;;10.50;7.13;;;7.40;99.90;;;;;;5132305;27;20184;-70
2021/01/28 12:26:07;;;;;;;6.25;5.03;;;7.50;99.90;;;;;;5135190;27;20199;-70
2021/01/28 12:28:34;;;;;;;9.32;6.25;;;7.40;99.90;;;;;;5146429;27;20195;-70
2021/01/28 12:31:00;;;;;;;5.72;4.85;;;7.50;99.90;;;;;;5145993;27;20194;-70
2021/01/28 12:33:26;;;;;;;7.05;4.85;;;7.40;99.90;;;;;;5153492;27;20225;-70
2021/01/28 12:35:53;;;;;;;6.32;5.25;;;7.40;99.90;;;;;;5134936;27;20192;-70
2021/01/28 12:38:19;;;;;;;5.68;4.78;;;7.50;99.90;;;;;;5142107;27;20196;-70
2021/01/28 12:40:45;;;;;;;6.90;5.20;;;7.50;99.90;;;;;;5152845;27;20199;-70
2021/01/28 12:43:12;;;;;;;5.68;4.78;;;7.40;99.90;;;;;;5141554;27;20192;-70
2021/01/28 12:45:39;;;;;;;6.85;5.55;;;7.40;99.90;;;;;;5132922;27;20202;-70
2021/01/28 12:48:06;;;;;;;5.88;4.97;;;7.40;99.90;;;;;;5137449;27;20196;-70
2021/01/28 12:50:32;;;;;;;7.82;5.15;;;7.50;99.90;;;;;;5134870;27;20194;-70
2021/01/28 12:52:58;;;;;;;6.97;5.57;;;7.50;99.90;;;;;;5135184;27;20633;-72
2021/01/28 12:55:25;;;;;;;7.10;4.85;;;7.50;99.90;;;;;;5137734;27;20199;-71
2021/01/28 12:57:52;;;;;;;7.22;6.03;;;7.50;99.90;;;;;;5153241;27;20255;-71
2021/01/28 13:00:21;;;;;;;6.32;5.20;;;7.50;99.90;;;;;;5152790;27;20270;-72